sensor_id;sensor_type;location;lat;lon;timestamp;pressure;altitude;pressure_sealevel;temperature;humidity
59487;BME280;45298;54.918;73.504;2023-05-24T00:00:04;101181.25;;;16.59;41.06
59487;BME280;45298;54.918;73.504;2023-05-24T00:02:37;101163.69;;;15.74;42.73
59487;BME280;45298;54.918;73.504;2023-05-24T00:05:09;101167.91;;;15.22;43.48
59487;BME280;45298;54.918;73.504;2023-05-24T00:07:39;101172.72;;;14.88;44.60
59487;BME280;45298;54.918;73.504;2023-05-24T00:10:08;101169.88;;;14.76;45.68
59487;BME280;45298;54.918;73.504;2023-05-24T00:12:37;101108.00;;;14.25;45.48
59487;BME280;45298;54.918;73.504;2023-05-24T00:15:09;101166.00;;;14.51;45.09
59487;BME280;45298;54.918;73.504;2023-05-24T00:17:38;101155.66;;;14.31;47.11
59487;BME280;45298;54.918;73.504;2023-05-24T00:20:10;101172.44;;;14.18;47.61
59487;BME280;45298;54.918;73.504;2023-05-24T00:22:40;101178.56;;;14.04;47.92
59487;BME280;45298;54.918;73.504;2023-05-24T00:25:09;101176.19;;;14.00;48.22
59487;BME280;45298;54.918;73.504;2023-05-24T00:27:38;101156.88;;;13.80;48.20
59487;BME280;45298;54.918;73.504;2023-05-24T00:30:07;101178.75;;;13.85;48.74
59487;BME280;45298;54.918;73.504;2023-05-24T00:32:36;101180.88;;;13.80;49.01
59487;BME280;45298;54.918;73.504;2023-05-24T00:35:05;101172.75;;;13.82;48.86
59487;BME280;45298;54.918;73.504;2023-05-24T00:37:35;101164.66;;;13.83;48.42
59487;BME280;45298;54.918;73.504;2023-05-24T00:40:05;101161.44;;;13.78;47.89
59487;BME280;45298;54.918;73.504;2023-05-24T00:42:34;101166.22;;;13.87;46.59
59487;BME280;45298;54.918;73.504;2023-05-24T00:45:03;101168.75;;;14.05;46.92
59487;BME280;45298;54.918;73.504;2023-05-24T00:47:35;101125.22;;;14.93;44.03
59487;BME280;45298;54.918;73.504;2023-05-24T00:50:06;101180.50;;;16.57;41.81
59487;BME280;45298;54.918;73.504;2023-05-24T00:52:36;101175.66;;;17.51;39.26
59487;BME280;45298;54.918;73.504;2023-05-24T00:55:06;101157.69;;;18.24;36.93
59487;BME280;45298;54.918;73.504;2023-05-24T00:57:36;101188.72;;;18.98;36.10
59487;BME280;45298;54.918;73.504;2023-05-24T01:00:05;101174.28;;;19.45;34.51
59487;BME280;45298;54.918;73.504;2023-05-24T01:02:35;101173.53;;;19.87;33.14
59487;BME280;45298;54.918;73.504;2023-05-24T01:05:07;101180.38;;;20.23;32.83
59487;BME280;45298;54.918;73.504;2023-05-24T01:16:11;101166.13;;;21.86;30.42
59487;BME280;45298;54.918;73.504;2023-05-24T01:18:50;101190.81;;;22.41;30.15
59487;BME280;45298;54.918;73.504;2023-05-24T01:27:12;101188.06;;;23.64;29.10
59487;BME280;45298;54.918;73.504;2023-05-24T01:29:42;101178.41;;;23.43;28.35
59487;BME280;45298;54.918;73.504;2023-05-24T01:32:11;101166.16;;;23.39;27.75
59487;BME280;45298;54.918;73.504;2023-05-24T01:34:40;101178.34;;;23.15;27.87
59487;BME280;45298;54.918;73.504;2023-05-24T01:37:09;101182.44;;;22.91;28.28
59487;BME280;45298;54.918;73.504;2023-05-24T01:39:39;101129.06;;;22.56;28.48
59487;BME280;45298;54.918;73.504;2023-05-24T01:42:19;101138.25;;;22.73;28.07
59487;BME280;45298;54.918;73.504;2023-05-24T01:45:03;101195.34;;;23.07;28.07
59487;BME280;45298;54.918;73.504;2023-05-24T01:52:53;101173.44;;;23.57;28.61
59487;BME280;45298;54.918;73.504;2023-05-24T01:55:26;101195.97;;;23.93;28.10
59487;BME280;45298;54.918;73.504;2023-05-24T01:58:01;101175.41;;;24.01;28.14
59487;BME280;45298;54.918;73.504;2023-05-24T02:00:31;101175.59;;;23.99;27.82
59487;BME280;45298;54.918;73.504;2023-05-24T02:03:02;101187.56;;;24.14;28.03
59487;BME280;45298;54.918;73.504;2023-05-24T02:05:33;101194.81;;;24.14;27.69
59487;BME280;45298;54.918;73.504;2023-05-24T02:08:05;101192.19;;;24.22;27.82
59487;BME280;45298;54.918;73.504;2023-05-24T02:10:34;101177.47;;;24.25;28.45
59487;BME280;45298;54.918;73.504;2023-05-24T02:13:07;101139.72;;;23.87;27.24
59487;BME280;45298;54.918;73.504;2023-05-24T02:15:36;101185.59;;;23.89;27.00
59487;BME280;45298;54.918;73.504;2023-05-24T02:18:05;101194.22;;;23.38;27.16
59487;BME280;45298;54.918;73.504;2023-05-24T02:20:36;101177.03;;;22.91;28.31
59487;BME280;45298;54.918;73.504;2023-05-24T02:23:05;101190.97;;;22.97;27.97
59487;BME280;45298;54.918;73.504;2023-05-24T02:25:36;101183.66;;;23.07;28.00
59487;BME280;45298;54.918;73.504;2023-05-24T02:28:05;101196.09;;;23.00;27.69
59487;BME280;45298;54.918;73.504;2023-05-24T02:30:34;101171.00;;;22.70;27.93
59487;BME280;45298;54.918;73.504;2023-05-24T02:33:03;101182.31;;;22.45;28.13
59487;BME280;45298;54.918;73.504;2023-05-24T02:35:32;101181.88;;;22.30;28.42
59487;BME280;45298;54.918;73.504;2023-05-24T02:38:01;101171.38;;;22.08;29.76
59487;BME280;45298;54.918;73.504;2023-05-24T02:40:33;101178.75;;;22.35;28.82
59487;BME280;45298;54.918;73.504;2023-05-24T02:43:03;101178.16;;;22.51;28.24
59487;BME280;45298;54.918;73.504;2023-05-24T02:45:32;101177.44;;;22.59;28.14
59487;BME280;45298;54.918;73.504;2023-05-24T02:48:01;101182.19;;;22.85;28.53
59487;BME280;45298;54.918;73.504;2023-05-24T02:50:30;101157.81;;;22.94;28.18
59487;BME280;45298;54.918;73.504;2023-05-24T02:52:59;101178.59;;;23.32;28.70
59487;BME280;45298;54.918;73.504;2023-05-24T02:55:28;101160.13;;;23.63;27.40
59487;BME280;45298;54.918;73.504;2023-05-24T02:57:57;101176.88;;;23.95;27.33
59487;BME280;45298;54.918;73.504;2023-05-24T03:00:26;101179.34;;;24.06;27.20
59487;BME280;45298;54.918;73.504;2023-05-24T03:02:55;101174.63;;;24.08;27.48
59487;BME280;45298;54.918;73.504;2023-05-24T03:05:31;101155.50;;;23.92;26.98
59487;BME280;45298;54.918;73.504;2023-05-24T03:08:00;101175.84;;;24.14;27.65
59487;BME280;45298;54.918;73.504;2023-05-24T03:10:29;101160.97;;;24.18;26.84
59487;BME280;45298;54.918;73.504;2023-05-24T03:12:58;101151.31;;;24.16;26.40
59487;BME280;45298;54.918;73.504;2023-05-24T03:15:28;101154.31;;;24.31;26.15
59487;BME280;45298;54.918;73.504;2023-05-24T03:17:57;101169.09;;;24.63;26.73
59487;BME280;45298;54.918;73.504;2023-05-24T03:20:26;101116.16;;;24.50;25.62
59487;BME280;45298;54.918;73.504;2023-05-24T03:22:55;101146.44;;;24.72;25.24
59487;BME280;45298;54.918;73.504;2023-05-24T03:25:24;101160.25;;;24.87;25.08
59487;BME280;45298;54.918;73.504;2023-05-24T03:27:54;101161.25;;;24.78;24.21
59487;BME280;45298;54.918;73.504;2023-05-24T03:30:24;101169.28;;;24.69;25.25
59487;BME280;45298;54.918;73.504;2023-05-24T03:32:55;101154.13;;;24.77;25.02
59487;BME280;45298;54.918;73.504;2023-05-24T03:35:24;101150.28;;;24.87;25.51
59487;BME280;45298;54.918;73.504;2023-05-24T03:37:52;101168.00;;;25.08;25.43
59487;BME280;45298;54.918;73.504;2023-05-24T03:40:22;101171.59;;;25.17;24.78
59487;BME280;45298;54.918;73.504;2023-05-24T03:42:55;101169.91;;;25.16;23.60
59487;BME280;45298;54.918;73.504;2023-05-24T03:45:45;101170.22;;;25.13;24.12
59487;BME280;45298;54.918;73.504;2023-05-24T03:48:14;101167.63;;;25.03;24.40
59487;BME280;45298;54.918;73.504;2023-05-24T03:50:43;101156.09;;;25.01;24.68
59487;BME280;45298;54.918;73.504;2023-05-24T03:53:12;101142.56;;;24.74;24.01
59487;BME280;45298;54.918;73.504;2023-05-24T03:55:41;101160.44;;;24.94;24.70
59487;BME280;45298;54.918;73.504;2023-05-24T03:58:11;101171.91;;;25.14;23.77
59487;BME280;45298;54.918;73.504;2023-05-24T04:00:40;101171.13;;;25.30;23.72
59487;BME280;45298;54.918;73.504;2023-05-24T04:03:10;101160.09;;;25.31;23.00
59487;BME280;45298;54.918;73.504;2023-05-24T04:05:40;101151.31;;;25.46;23.01
59487;BME280;45298;54.918;73.504;2023-05-24T04:08:09;101176.88;;;25.27;23.12
59487;BME280;45298;54.918;73.504;2023-05-24T04:10:40;101171.81;;;25.40;22.63
59487;BME280;45298;54.918;73.504;2023-05-24T04:13:11;101164.06;;;25.45;23.21
59487;BME280;45298;54.918;73.504;2023-05-24T04:15:40;101146.69;;;25.38;22.80
59487;BME280;45298;54.918;73.504;2023-05-24T04:18:09;101167.88;;;25.69;21.87
59487;BME280;45298;54.918;73.504;2023-05-24T04:20:39;101156.97;;;25.77;22.66
59487;BME280;45298;54.918;73.504;2023-05-24T04:23:09;101148.31;;;25.82;22.03
59487;BME280;45298;54.918;73.504;2023-05-24T04:25:38;101144.44;;;25.85;22.73
59487;BME280;45298;54.918;73.504;2023-05-24T04:28:08;101103.13;;;25.64;22.11
59487;BME280;45298;54.918;73.504;2023-05-24T04:30:37;101159.25;;;26.15;22.74
59487;BME280;45298;54.918;73.504;2023-05-24T04:33:06;101152.25;;;26.21;21.85
59487;BME280;45298;54.918;73.504;2023-05-24T04:35:35;101155.78;;;25.80;21.54
59487;BME280;45298;54.918;73.504;2023-05-24T04:38:05;101161.91;;;25.74;21.66
59487;BME280;45298;54.918;73.504;2023-05-24T04:40:34;101143.91;;;25.73;21.86
59487;BME280;45298;54.918;73.504;2023-05-24T04:43:03;101156.84;;;25.95;21.57
59487;BME280;45298;54.918;73.504;2023-05-24T04:45:34;101158.19;;;26.08;22.48
59487;BME280;45298;54.918;73.504;2023-05-24T04:48:03;101142.22;;;25.72;21.58
59487;BME280;45298;54.918;73.504;2023-05-24T04:50:32;101143.19;;;25.46;21.21
59487;BME280;45298;54.918;73.504;2023-05-24T04:53:02;101140.84;;;25.68;21.85
59487;BME280;45298;54.918;73.504;2023-05-24T04:55:32;101143.22;;;26.04;20.83
59487;BME280;45298;54.918;73.504;2023-05-24T04:58:01;101141.53;;;25.94;21.98
59487;BME280;45298;54.918;73.504;2023-05-24T05:00:30;101143.41;;;26.19;22.10
59487;BME280;45298;54.918;73.504;2023-05-24T05:02:58;101146.63;;;26.31;22.35
59487;BME280;45298;54.918;73.504;2023-05-24T05:05:28;101150.69;;;26.43;22.00
59487;BME280;45298;54.918;73.504;2023-05-24T05:07:56;101124.50;;;26.50;21.57
59487;BME280;45298;54.918;73.504;2023-05-24T05:10:25;101130.84;;;26.91;22.30
59487;BME280;45298;54.918;73.504;2023-05-24T05:12:55;101143.69;;;27.13;21.47
59487;BME280;45298;54.918;73.504;2023-05-24T05:15:23;101126.44;;;27.21;21.96
59487;BME280;45298;54.918;73.504;2023-05-24T05:17:52;101118.56;;;27.26;20.98
59487;BME280;45298;54.918;73.504;2023-05-24T05:20:21;101135.16;;;27.48;21.51
59487;BME280;45298;54.918;73.504;2023-05-24T05:22:50;101128.53;;;27.42;20.50
59487;BME280;45298;54.918;73.504;2023-05-24T05:25:20;101145.97;;;27.33;21.41
59487;BME280;45298;54.918;73.504;2023-05-24T05:27:49;101137.38;;;27.44;20.51
59487;BME280;45298;54.918;73.504;2023-05-24T05:30:18;101126.69;;;27.11;20.52
59487;BME280;45298;54.918;73.504;2023-05-24T05:32:47;101128.47;;;26.88;19.69
59487;BME280;45298;54.918;73.504;2023-05-24T05:35:16;101127.56;;;26.55;20.06
59487;BME280;45298;54.918;73.504;2023-05-24T05:37:45;101121.94;;;26.49;20.29
59487;BME280;45298;54.918;73.504;2023-05-24T05:40:15;101104.50;;;26.35;20.46
59487;BME280;45298;54.918;73.504;2023-05-24T05:42:44;101117.31;;;26.66;21.38
59487;BME280;45298;54.918;73.504;2023-05-24T05:45:15;101114.91;;;26.71;20.24
59487;BME280;45298;54.918;73.504;2023-05-24T05:47:44;101103.34;;;26.69;20.47
59487;BME280;45298;54.918;73.504;2023-05-24T05:50:15;101111.16;;;26.80;20.86
59487;BME280;45298;54.918;73.504;2023-05-24T05:52:44;101107.44;;;26.65;20.68
59487;BME280;45298;54.918;73.504;2023-05-24T05:55:13;101129.53;;;26.70;19.96
59487;BME280;45298;54.918;73.504;2023-05-24T05:57:42;101127.38;;;26.57;20.22
59487;BME280;45298;54.918;73.504;2023-05-24T06:00:11;101111.63;;;26.36;20.03
59487;BME280;45298;54.918;73.504;2023-05-24T06:02:40;101113.13;;;26.38;20.65
59487;BME280;45298;54.918;73.504;2023-05-24T06:05:12;101123.34;;;26.36;20.48
59487;BME280;45298;54.918;73.504;2023-05-24T06:07:42;101126.00;;;26.61;21.27
59487;BME280;45298;54.918;73.504;2023-05-24T06:10:12;101127.84;;;26.61;19.86
59487;BME280;45298;54.918;73.504;2023-05-24T06:12:41;101125.19;;;26.44;20.16
59487;BME280;45298;54.918;73.504;2023-05-24T06:15:10;101100.72;;;26.44;20.07
59487;BME280;45298;54.918;73.504;2023-05-24T06:17:39;101091.72;;;26.44;20.35
59487;BME280;45298;54.918;73.504;2023-05-24T06:20:10;101114.53;;;26.18;20.47
59487;BME280;45298;54.918;73.504;2023-05-24T06:22:42;101092.09;;;25.99;19.96
59487;BME280;45298;54.918;73.504;2023-05-24T06:25:13;101085.16;;;26.13;21.14
59487;BME280;45298;54.918;73.504;2023-05-24T06:27:42;101078.88;;;26.61;21.72
59487;BME280;45298;54.918;73.504;2023-05-24T06:30:12;101101.72;;;26.99;19.90
59487;BME280;45298;54.918;73.504;2023-05-24T06:32:44;101083.63;;;26.75;19.36
59487;BME280;45298;54.918;73.504;2023-05-24T06:35:13;101088.94;;;26.52;20.79
59487;BME280;45298;54.918;73.504;2023-05-24T06:37:41;101048.94;;;26.21;20.40
59487;BME280;45298;54.918;73.504;2023-05-24T06:40:11;101096.00;;;26.78;20.32
59487;BME280;45298;54.918;73.504;2023-05-24T06:42:40;101077.25;;;26.91;19.54
59487;BME280;45298;54.918;73.504;2023-05-24T06:45:10;101083.84;;;26.97;19.65
59487;BME280;45298;54.918;73.504;2023-05-24T06:47:39;101089.84;;;27.24;19.79
59487;BME280;45298;54.918;73.504;2023-05-24T06:50:08;101078.53;;;27.35;19.68
59487;BME280;45298;54.918;73.504;2023-05-24T06:52:37;101088.53;;;27.66;19.87
59487;BME280;45298;54.918;73.504;2023-05-24T06:55:06;101065.19;;;27.87;18.81
59487;BME280;45298;54.918;73.504;2023-05-24T06:57:36;101073.69;;;27.92;18.75
59487;BME280;45298;54.918;73.504;2023-05-24T07:00:05;101017.56;;;27.36;19.43
59487;BME280;45298;54.918;73.504;2023-05-24T07:02:39;101062.78;;;27.45;19.72
59487;BME280;45298;54.918;73.504;2023-05-24T07:05:08;101069.56;;;27.73;19.23
59487;BME280;45298;54.918;73.504;2023-05-24T07:07:42;101070.09;;;27.92;19.19
59487;BME280;45298;54.918;73.504;2023-05-24T07:10:11;101059.34;;;27.75;18.82
59487;BME280;45298;54.918;73.504;2023-05-24T07:12:40;101075.50;;;27.30;19.38
59487;BME280;45298;54.918;73.504;2023-05-24T07:15:10;101069.88;;;27.00;18.53
59487;BME280;45298;54.918;73.504;2023-05-24T07:17:38;101083.25;;;27.18;19.45
59487;BME280;45298;54.918;73.504;2023-05-24T07:20:09;101026.84;;;27.04;18.58
59487;BME280;45298;54.918;73.504;2023-05-24T07:22:39;101076.63;;;27.12;18.35
59487;BME280;45298;54.918;73.504;2023-05-24T07:25:09;101047.41;;;27.06;19.07
59487;BME280;45298;54.918;73.504;2023-05-24T07:27:38;101064.00;;;27.43;18.45
59487;BME280;45298;54.918;73.504;2023-05-24T07:30:07;101062.31;;;27.65;18.66
59487;BME280;45298;54.918;73.504;2023-05-24T07:32:56;101043.75;;;27.84;19.68
59487;BME280;45298;54.918;73.504;2023-05-24T07:35:26;101048.03;;;27.63;18.01
59487;BME280;45298;54.918;73.504;2023-05-24T07:37:57;101053.63;;;27.47;18.79
59487;BME280;45298;54.918;73.504;2023-05-24T07:40:27;101025.19;;;27.18;18.21
59487;BME280;45298;54.918;73.504;2023-05-24T07:42:56;101037.53;;;27.28;19.01
59487;BME280;45298;54.918;73.504;2023-05-24T07:45:24;101050.88;;;27.47;18.89
59487;BME280;45298;54.918;73.504;2023-05-24T07:47:54;101053.72;;;27.30;19.65
59487;BME280;45298;54.918;73.504;2023-05-24T07:50:24;101038.81;;;27.41;19.36
59487;BME280;45298;54.918;73.504;2023-05-24T07:52:55;101042.56;;;27.63;18.40
59487;BME280;45298;54.918;73.504;2023-05-24T07:55:24;101010.03;;;27.47;18.28
59487;BME280;45298;54.918;73.504;2023-05-24T07:57:54;101049.00;;;27.85;18.00
59487;BME280;45298;54.918;73.504;2023-05-24T08:00:23;101035.28;;;27.79;19.78
59487;BME280;45298;54.918;73.504;2023-05-24T08:02:55;101030.16;;;27.99;19.72
59487;BME280;45298;54.918;73.504;2023-05-24T08:05:24;101037.63;;;28.35;18.64
59487;BME280;45298;54.918;73.504;2023-05-24T08:07:54;101033.00;;;28.50;19.00
59487;BME280;45298;54.918;73.504;2023-05-24T08:10:23;101033.94;;;28.58;17.94
59487;BME280;45298;54.918;73.504;2023-05-24T08:12:57;101040.44;;;28.42;17.94
59487;BME280;45298;54.918;73.504;2023-05-24T08:15:26;101035.91;;;28.19;18.65
59487;BME280;45298;54.918;73.504;2023-05-24T08:17:55;100975.91;;;28.04;17.96
59487;BME280;45298;54.918;73.504;2023-05-24T08:20:24;101024.63;;;28.22;18.58
59487;BME280;45298;54.918;73.504;2023-05-24T08:22:54;101030.47;;;28.34;19.33
59487;BME280;45298;54.918;73.504;2023-05-24T08:25:23;101023.09;;;28.64;18.76
59487;BME280;45298;54.918;73.504;2023-05-24T08:27:52;101025.44;;;28.68;18.52
59487;BME280;45298;54.918;73.504;2023-05-24T08:30:24;101013.78;;;28.74;19.55
59487;BME280;45298;54.918;73.504;2023-05-24T08:32:53;100969.34;;;28.65;19.05
59487;BME280;45298;54.918;73.504;2023-05-24T08:35:22;101012.91;;;28.88;18.90
59487;BME280;45298;54.918;73.504;2023-05-24T08:37:51;100956.66;;;28.57;18.41
59487;BME280;45298;54.918;73.504;2023-05-24T08:40:20;100999.63;;;28.33;19.45
59487;BME280;45298;54.918;73.504;2023-05-24T08:42:52;101000.72;;;28.09;19.02
59487;BME280;45298;54.918;73.504;2023-05-24T08:45:21;101009.09;;;28.08;19.31
59487;BME280;45298;54.918;73.504;2023-05-24T08:47:51;101010.09;;;27.77;19.08
59487;BME280;45298;54.918;73.504;2023-05-24T08:50:21;100969.28;;;27.30;19.05
59487;BME280;45298;54.918;73.504;2023-05-24T08:52:50;101016.44;;;27.54;19.09
59487;BME280;45298;54.918;73.504;2023-05-24T08:55:20;100968.25;;;27.31;19.38
59487;BME280;45298;54.918;73.504;2023-05-24T08:57:49;101001.22;;;27.59;19.62
59487;BME280;45298;54.918;73.504;2023-05-24T09:00:20;101007.59;;;27.52;18.59
59487;BME280;45298;54.918;73.504;2023-05-24T09:02:49;101010.34;;;27.43;19.02
59487;BME280;45298;54.918;73.504;2023-05-24T09:05:19;101021.44;;;27.19;18.49
59487;BME280;45298;54.918;73.504;2023-05-24T09:07:52;101007.34;;;27.15;20.25
59487;BME280;45298;54.918;73.504;2023-05-24T09:10:24;101014.25;;;27.26;19.29
59487;BME280;45298;54.918;73.504;2023-05-24T09:12:56;101015.44;;;27.00;18.87
59487;BME280;45298;54.918;73.504;2023-05-24T09:15:29;101003.28;;;26.88;19.69
59487;BME280;45298;54.918;73.504;2023-05-24T09:18:06;101010.94;;;27.15;19.26
59487;BME280;45298;54.918;73.504;2023-05-24T09:20:37;100976.16;;;27.18;19.54
59487;BME280;45298;54.918;73.504;2023-05-24T09:23:14;100946.97;;;27.11;20.10
59487;BME280;45298;54.918;73.504;2023-05-24T09:25:45;101004.44;;;27.40;20.08
59487;BME280;45298;54.918;73.504;2023-05-24T09:28:16;100991.94;;;27.54;20.08
59487;BME280;45298;54.918;73.504;2023-05-24T09:30:57;100977.81;;;27.50;19.41
59487;BME280;45298;54.918;73.504;2023-05-24T09:33:31;100987.44;;;27.38;18.94
59487;BME280;45298;54.918;73.504;2023-05-24T09:36:02;100997.41;;;27.45;19.58
59487;BME280;45298;54.918;73.504;2023-05-24T09:38:32;100995.38;;;27.48;19.04
59487;BME280;45298;54.918;73.504;2023-05-24T09:41:05;100985.31;;;27.48;18.65
59487;BME280;45298;54.918;73.504;2023-05-24T09:43:46;100993.88;;;27.60;18.97
59487;BME280;45298;54.918;73.504;2023-05-24T09:46:19;100985.53;;;27.38;18.79
59487;BME280;45298;54.918;73.504;2023-05-24T09:48:58;100989.06;;;27.24;18.90
59487;BME280;45298;54.918;73.504;2023-05-24T09:51:28;100989.50;;;27.12;18.64
59487;BME280;45298;54.918;73.504;2023-05-24T09:54:00;100981.81;;;27.16;19.09
59487;BME280;45298;54.918;73.504;2023-05-24T09:56:32;100976.13;;;27.26;19.09
59487;BME280;45298;54.918;73.504;2023-05-24T09:59:06;100981.34;;;27.12;18.35
59487;BME280;45298;54.918;73.504;2023-05-24T10:01:36;100997.06;;;27.02;18.65
59487;BME280;45298;54.918;73.504;2023-05-24T10:04:05;100992.72;;;26.93;19.14
59487;BME280;45298;54.918;73.504;2023-05-24T10:06:37;100993.91;;;26.90;19.45
59487;BME280;45298;54.918;73.504;2023-05-24T10:09:07;101000.56;;;26.79;19.26
59487;BME280;45298;54.918;73.504;2023-05-24T10:11:37;100981.03;;;26.44;19.40
59487;BME280;45298;54.918;73.504;2023-05-24T10:14:08;100973.38;;;26.48;19.53
59487;BME280;45298;54.918;73.504;2023-05-24T10:16:37;100975.03;;;26.57;19.87
59487;BME280;45298;54.918;73.504;2023-05-24T10:19:06;100985.81;;;26.74;19.08
59487;BME280;45298;54.918;73.504;2023-05-24T10:21:37;100971.66;;;26.78;19.36
59487;BME280;45298;54.918;73.504;2023-05-24T10:24:10;100979.25;;;26.91;19.72
59487;BME280;45298;54.918;73.504;2023-05-24T10:26:41;100967.69;;;26.89;20.16
59487;BME280;45298;54.918;73.504;2023-05-24T10:29:18;100975.34;;;26.94;20.24
59487;BME280;45298;54.918;73.504;2023-05-24T10:31:53;100968.59;;;26.81;20.27
59487;BME280;45298;54.918;73.504;2023-05-24T10:34:23;100985.25;;;26.78;20.14
59487;BME280;45298;54.918;73.504;2023-05-24T10:36:53;100974.09;;;26.73;20.26
59487;BME280;45298;54.918;73.504;2023-05-24T10:39:24;100962.44;;;26.56;20.35
59487;BME280;45298;54.918;73.504;2023-05-24T10:42:01;100952.78;;;26.53;19.93
59487;BME280;45298;54.918;73.504;2023-05-24T10:44:31;100963.91;;;26.67;20.76
59487;BME280;45298;54.918;73.504;2023-05-24T10:47:12;100972.19;;;26.74;19.84
59487;BME280;45298;54.918;73.504;2023-05-24T10:49:50;100960.47;;;26.73;20.20
59487;BME280;45298;54.918;73.504;2023-05-24T10:52:20;100935.19;;;26.64;20.31
59487;BME280;45298;54.918;73.504;2023-05-24T10:55:19;100953.56;;;26.94;20.61
59487;BME280;45298;54.918;73.504;2023-05-24T10:57:48;100959.81;;;27.03;20.16
59487;BME280;45298;54.918;73.504;2023-05-24T11:03:13;100952.31;;;26.73;20.33
59487;BME280;45298;54.918;73.504;2023-05-24T11:05:52;100960.47;;;26.73;20.78
59487;BME280;45298;54.918;73.504;2023-05-24T11:08:29;100937.72;;;26.66;21.09
59487;BME280;45298;54.918;73.504;2023-05-24T11:11:08;100957.41;;;26.76;21.06
59487;BME280;45298;54.918;73.504;2023-05-24T11:13:55;100935.56;;;26.61;20.76
59487;BME280;45298;54.918;73.504;2023-05-24T11:16:51;100947.25;;;26.62;20.69
59487;BME280;45298;54.918;73.504;2023-05-24T11:19:23;100932.06;;;26.44;20.49
59487;BME280;45298;54.918;73.504;2023-05-24T11:21:55;100932.75;;;26.46;20.87
59487;BME280;45298;54.918;73.504;2023-05-24T11:24:26;100926.47;;;26.46;21.51
59487;BME280;45298;54.918;73.504;2023-05-24T11:27:00;100919.84;;;26.40;21.78
59487;BME280;45298;54.918;73.504;2023-05-24T11:29:41;100916.63;;;26.45;21.22
59487;BME280;45298;54.918;73.504;2023-05-24T11:32:17;100929.00;;;26.47;21.89
59487;BME280;45298;54.918;73.504;2023-05-24T11:34:47;100943.94;;;26.51;21.80
59487;BME280;45298;54.918;73.504;2023-05-24T11:37:17;100923.09;;;26.35;21.88
59487;BME280;45298;54.918;73.504;2023-05-24T11:39:55;100930.44;;;26.35;22.13
59487;BME280;45298;54.918;73.504;2023-05-24T11:42:27;100939.97;;;26.31;22.14
59487;BME280;45298;54.918;73.504;2023-05-24T11:44:57;100927.38;;;26.30;22.14
59487;BME280;45298;54.918;73.504;2023-05-24T11:47:26;100917.28;;;26.15;22.17
59487;BME280;45298;54.918;73.504;2023-05-24T11:49:55;100939.97;;;26.31;22.28
59487;BME280;45298;54.918;73.504;2023-05-24T11:52:25;100940.31;;;26.28;22.09
59487;BME280;45298;54.918;73.504;2023-05-24T11:54:54;100921.16;;;26.13;22.33
59487;BME280;45298;54.918;73.504;2023-05-24T11:57:31;100932.22;;;26.03;22.63
59487;BME280;45298;54.918;73.504;2023-05-24T12:00:05;100889.53;;;25.72;22.38
59487;BME280;45298;54.918;73.504;2023-05-24T12:02:38;100941.44;;;25.93;22.36
59487;BME280;45298;54.918;73.504;2023-05-24T12:05:09;100930.25;;;25.80;22.60
59487;BME280;45298;54.918;73.504;2023-05-24T12:07:39;100934.03;;;25.79;22.89
59487;BME280;45298;54.918;73.504;2023-05-24T12:10:09;100933.84;;;25.80;22.30
59487;BME280;45298;54.918;73.504;2023-05-24T12:12:45;100932.13;;;25.79;22.29
59487;BME280;45298;54.918;73.504;2023-05-24T12:15:14;100938.06;;;25.83;22.64
59487;BME280;45298;54.918;73.504;2023-05-24T12:17:46;100922.28;;;25.70;22.41
59487;BME280;45298;54.918;73.504;2023-05-24T12:20:19;100939.28;;;25.72;22.25
59487;BME280;45298;54.918;73.504;2023-05-24T12:22:53;100929.28;;;25.64;22.33
59487;BME280;45298;54.918;73.504;2023-05-24T12:25:22;100934.72;;;25.64;22.32
59487;BME280;45298;54.918;73.504;2023-05-24T12:27:55;100917.09;;;25.52;22.36
59487;BME280;45298;54.918;73.504;2023-05-24T12:30:25;100920.81;;;25.43;22.27
59487;BME280;45298;54.918;73.504;2023-05-24T12:32:56;100935.41;;;25.50;22.29
59487;BME280;45298;54.918;73.504;2023-05-24T12:35:24;100880.47;;;25.15;23.04
59487;BME280;45298;54.918;73.504;2023-05-24T12:37:59;100924.22;;;25.45;23.16
59487;BME280;45298;54.918;73.504;2023-05-24T12:40:31;100921.50;;;25.37;23.50
59487;BME280;45298;54.918;73.504;2023-05-24T12:43:02;100918.94;;;25.35;23.80
59487;BME280;45298;54.918;73.504;2023-05-24T12:45:31;100937.59;;;25.38;23.07
59487;BME280;45298;54.918;73.504;2023-05-24T12:48:00;100923.72;;;25.25;23.27
59487;BME280;45298;54.918;73.504;2023-05-24T12:50:30;100873.69;;;24.94;23.91
59487;BME280;45298;54.918;73.504;2023-05-24T12:52:59;100932.19;;;25.30;24.02
59487;BME280;45298;54.918;73.504;2023-05-24T12:55:28;100936.09;;;25.27;24.05
59487;BME280;45298;54.918;73.504;2023-05-24T12:57:58;100922.69;;;25.17;23.71
59487;BME280;45298;54.918;73.504;2023-05-24T13:00:29;100919.13;;;25.09;23.56
59487;BME280;45298;54.918;73.504;2023-05-24T13:02:58;100929.28;;;25.07;24.04
59487;BME280;45298;54.918;73.504;2023-05-24T13:05:28;100910.63;;;25.03;24.02
59487;BME280;45298;54.918;73.504;2023-05-24T13:07:57;100921.84;;;25.09;23.53
59487;BME280;45298;54.918;73.504;2023-05-24T13:10:26;100929.63;;;25.03;23.89
59487;BME280;45298;54.918;73.504;2023-05-24T13:12:55;100937.78;;;25.03;24.28
59487;BME280;45298;54.918;73.504;2023-05-24T13:15:24;100924.22;;;24.95;24.29
59487;BME280;45298;54.918;73.504;2023-05-24T13:17:54;100930.81;;;24.84;25.11
59487;BME280;45298;54.918;73.504;2023-05-24T13:20:24;100923.84;;;24.73;24.87